sensor_id;sensor_type;location;lat;lon;timestamp;P1;durP1;ratioP1;P2;durP2;ratioP2
84877;SDS011;75140;47.754;8.840;2024-02-21T00:01:16;8.60;;;4.80;;
84877;SDS011;75140;47.754;8.840;2024-02-21T00:03:42;8.70;;;4.03;;
84877;SDS011;75140;47.754;8.840;2024-02-21T00:06:08;8.52;;;4.35;;
84877;SDS011;75140;47.754;8.840;2024-02-21T00:08:33;6.78;;;3.78;;
84877;SDS011;75140;47.754;8.840;2024-02-21T00:10:58;8.95;;;4.57;;
84877;SDS011;75140;47.754;8.840;2024-02-21T00:13:24;11.70;;;4.03;;
84877;SDS011;75140;47.754;8.840;2024-02-21T00:15:49;7.32;;;4.18;;
84877;SDS011;75140;47.754;8.840;2024-02-21T00:18:15;7.93;;;3.47;;
84877;SDS011;75140;47.754;8.840;2024-02-21T00:20:41;6.80;;;4.13;;
84877;SDS011;75140;47.754;8.840;2024-02-21T00:23:06;8.32;;;3.97;;
84877;SDS011;75140;47.754;8.840;2024-02-21T00:25:31;5.87;;;3.63;;
84877;SDS011;75140;47.754;8.840;2024-02-21T00:27:57;8.33;;;4.10;;
84877;SDS011;75140;47.754;8.840;2024-02-21T00:30:22;6.47;;;3.70;;
84877;SDS011;75140;47.754;8.840;2024-02-21T00:32:47;13.40;;;5.30;;
84877;SDS011;75140;47.754;8.840;2024-02-21T00:35:13;8.97;;;3.93;;
84877;SDS011;75140;47.754;8.840;2024-02-21T00:37:39;10.57;;;5.93;;
84877;SDS011;75140;47.754;8.840;2024-02-21T00:40:05;8.93;;;4.55;;
84877;SDS011;75140;47.754;8.840;2024-02-21T00:42:30;8.18;;;4.40;;
84877;SDS011;75140;47.754;8.840;2024-02-21T00:44:56;11.27;;;4.90;;
84877;SDS011;75140;47.754;8.840;2024-02-21T00:47:21;11.50;;;4.90;;
84877;SDS011;75140;47.754;8.840;2024-02-21T00:49:47;11.80;;;4.67;;
84877;SDS011;75140;47.754;8.840;2024-02-21T00:52:12;12.20;;;4.63;;
84877;SDS011;75140;47.754;8.840;2024-02-21T00:54:37;10.50;;;4.70;;
84877;SDS011;75140;47.754;8.840;2024-02-21T00:57:03;7.77;;;5.03;;
84877;SDS011;75140;47.754;8.840;2024-02-21T00:59:28;8.30;;;4.43;;
84877;SDS011;75140;47.754;8.840;2024-02-21T01:01:53;9.20;;;4.03;;
84877;SDS011;75140;47.754;8.840;2024-02-21T01:04:19;10.47;;;4.67;;
84877;SDS011;75140;47.754;8.840;2024-02-21T01:06:44;9.88;;;4.95;;
84877;SDS011;75140;47.754;8.840;2024-02-21T01:09:10;9.30;;;4.13;;
84877;SDS011;75140;47.754;8.840;2024-02-21T01:11:36;10.80;;;4.50;;
84877;SDS011;75140;47.754;8.840;2024-02-21T01:14:02;7.90;;;3.70;;
84877;SDS011;75140;47.754;8.840;2024-02-21T01:16:27;11.20;;;4.03;;
84877;SDS011;75140;47.754;8.840;2024-02-21T01:18:52;5.63;;;3.37;;
84877;SDS011;75140;47.754;8.840;2024-02-21T01:21:18;9.77;;;3.97;;
84877;SDS011;75140;47.754;8.840;2024-02-21T01:23:43;6.33;;;3.13;;
84877;SDS011;75140;47.754;8.840;2024-02-21T01:26:08;6.40;;;3.20;;
84877;SDS011;75140;47.754;8.840;2024-02-21T01:28:37;10.25;;;3.85;;
84877;SDS011;75140;47.754;8.840;2024-02-21T01:31:03;5.67;;;2.70;;
84877;SDS011;75140;47.754;8.840;2024-02-21T01:33:28;6.80;;;3.35;;
84877;SDS011;75140;47.754;8.840;2024-02-21T01:38:24;5.87;;;2.93;;
84877;SDS011;75140;47.754;8.840;2024-02-21T01:40:50;9.00;;;3.87;;
84877;SDS011;75140;47.754;8.840;2024-02-21T01:43:16;7.87;;;3.70;;
84877;SDS011;75140;47.754;8.840;2024-02-21T01:45:43;6.47;;;3.22;;
84877;SDS011;75140;47.754;8.840;2024-02-21T01:48:12;6.10;;;3.03;;
84877;SDS011;75140;47.754;8.840;2024-02-21T01:50:38;7.18;;;3.55;;
84877;SDS011;75140;47.754;8.840;2024-02-21T01:53:03;4.88;;;2.90;;
84877;SDS011;75140;47.754;8.840;2024-02-21T01:55:29;5.75;;;3.53;;
84877;SDS011;75140;47.754;8.840;2024-02-21T01:57:54;7.63;;;3.60;;
84877;SDS011;75140;47.754;8.840;2024-02-21T02:00:20;7.93;;;2.92;;
84877;SDS011;75140;47.754;8.840;2024-02-21T02:02:47;7.78;;;3.80;;
84877;SDS011;75140;47.754;8.840;2024-02-21T02:05:12;9.23;;;3.57;;
84877;SDS011;75140;47.754;8.840;2024-02-21T02:07:37;8.98;;;3.95;;
84877;SDS011;75140;47.754;8.840;2024-02-21T02:10:03;6.57;;;3.03;;
84877;SDS011;75140;47.754;8.840;2024-02-21T02:12:28;8.20;;;3.38;;
84877;SDS011;75140;47.754;8.840;2024-02-21T02:14:58;7.68;;;4.18;;
84877;SDS011;75140;47.754;8.840;2024-02-21T02:17:29;7.85;;;3.50;;
84877;SDS011;75140;47.754;8.840;2024-02-21T02:19:55;14.68;;;4.15;;
84877;SDS011;75140;47.754;8.840;2024-02-21T02:22:22;6.73;;;3.60;;
84877;SDS011;75140;47.754;8.840;2024-02-21T02:27:23;4.80;;;2.83;;
84877;SDS011;75140;47.754;8.840;2024-02-21T02:29:49;5.13;;;2.63;;
84877;SDS011;75140;47.754;8.840;2024-02-21T02:32:14;7.53;;;3.13;;
84877;SDS011;75140;47.754;8.840;2024-02-21T02:34:40;11.05;;;3.80;;
84877;SDS011;75140;47.754;8.840;2024-02-21T02:37:05;6.47;;;2.93;;
84877;SDS011;75140;47.754;8.840;2024-02-21T02:39:31;5.53;;;3.20;;
84877;SDS011;75140;47.754;8.840;2024-02-21T02:41:56;7.20;;;3.97;;
84877;SDS011;75140;47.754;8.840;2024-02-21T02:44:21;8.37;;;3.40;;
84877;SDS011;75140;47.754;8.840;2024-02-21T02:46:47;6.30;;;3.37;;
84877;SDS011;75140;47.754;8.840;2024-02-21T02:49:12;7.43;;;3.60;;
84877;SDS011;75140;47.754;8.840;2024-02-21T02:51:41;8.13;;;3.95;;
84877;SDS011;75140;47.754;8.840;2024-02-21T02:54:07;12.85;;;3.97;;
84877;SDS011;75140;47.754;8.840;2024-02-21T02:56:32;8.27;;;3.57;;
84877;SDS011;75140;47.754;8.840;2024-02-21T02:58:58;5.77;;;3.27;;
84877;SDS011;75140;47.754;8.840;2024-02-21T03:01:23;13.70;;;6.30;;
84877;SDS011;75140;47.754;8.840;2024-02-21T03:03:48;12.47;;;4.10;;
84877;SDS011;75140;47.754;8.840;2024-02-21T03:06:14;10.83;;;3.97;;
84877;SDS011;75140;47.754;8.840;2024-02-21T03:08:39;6.60;;;4.05;;
84877;SDS011;75140;47.754;8.840;2024-02-21T03:11:05;9.70;;;3.57;;
84877;SDS011;75140;47.754;8.840;2024-02-21T03:13:30;5.88;;;3.22;;
84877;SDS011;75140;47.754;8.840;2024-02-21T03:15:55;5.73;;;3.27;;
84877;SDS011;75140;47.754;8.840;2024-02-21T03:18:21;8.70;;;2.93;;
84877;SDS011;75140;47.754;8.840;2024-02-21T03:20:46;8.03;;;3.53;;
84877;SDS011;75140;47.754;8.840;2024-02-21T03:23:11;6.20;;;3.20;;
84877;SDS011;75140;47.754;8.840;2024-02-21T03:25:37;6.63;;;3.57;;
84877;SDS011;75140;47.754;8.840;2024-02-21T03:28:02;6.33;;;3.00;;
84877;SDS011;75140;47.754;8.840;2024-02-21T03:30:28;5.60;;;3.58;;
84877;SDS011;75140;47.754;8.840;2024-02-21T03:32:53;6.60;;;2.72;;
84877;SDS011;75140;47.754;8.840;2024-02-21T03:35:19;5.93;;;2.93;;
84877;SDS011;75140;47.754;8.840;2024-02-21T03:37:44;6.90;;;3.80;;
84877;SDS011;75140;47.754;8.840;2024-02-21T03:40:10;7.47;;;3.38;;
84877;SDS011;75140;47.754;8.840;2024-02-21T03:42:37;3.45;;;3.15;;
84877;SDS011;75140;47.754;8.840;2024-02-21T03:45:02;7.40;;;3.47;;
84877;SDS011;75140;47.754;8.840;2024-02-21T03:47:28;6.22;;;3.35;;
84877;SDS011;75140;47.754;8.840;2024-02-21T03:49:54;5.85;;;3.15;;
84877;SDS011;75140;47.754;8.840;2024-02-21T03:52:19;7.00;;;3.00;;
84877;SDS011;75140;47.754;8.840;2024-02-21T03:54:44;6.27;;;3.93;;
84877;SDS011;75140;47.754;8.840;2024-02-21T03:57:10;5.80;;;3.67;;
84877;SDS011;75140;47.754;8.840;2024-02-21T03:59:35;7.57;;;2.97;;
84877;SDS011;75140;47.754;8.840;2024-02-21T04:02:00;7.87;;;3.83;;
84877;SDS011;75140;47.754;8.840;2024-02-21T04:04:28;8.00;;;3.17;;
84877;SDS011;75140;47.754;8.840;2024-02-21T04:06:54;10.35;;;3.55;;
84877;SDS011;75140;47.754;8.840;2024-02-21T04:09:19;6.67;;;3.47;;
84877;SDS011;75140;47.754;8.840;2024-02-21T04:11:45;5.07;;;2.93;;
84877;SDS011;75140;47.754;8.840;2024-02-21T04:14:10;6.25;;;3.33;;
84877;SDS011;75140;47.754;8.840;2024-02-21T04:16:36;8.73;;;3.00;;
84877;SDS011;75140;47.754;8.840;2024-02-21T04:19:02;5.27;;;2.73;;
84877;SDS011;75140;47.754;8.840;2024-02-21T04:21:27;6.78;;;2.38;;
84877;SDS011;75140;47.754;8.840;2024-02-21T04:23:52;2.92;;;2.45;;
84877;SDS011;75140;47.754;8.840;2024-02-21T04:26:18;6.73;;;2.77;;
84877;SDS011;75140;47.754;8.840;2024-02-21T04:28:44;9.10;;;3.30;;
84877;SDS011;75140;47.754;8.840;2024-02-21T04:31:10;6.93;;;2.33;;
84877;SDS011;75140;47.754;8.840;2024-02-21T04:33:35;7.67;;;2.50;;
84877;SDS011;75140;47.754;8.840;2024-02-21T04:36:01;6.90;;;2.97;;
84877;SDS011;75140;47.754;8.840;2024-02-21T04:38:27;5.80;;;3.00;;
84877;SDS011;75140;47.754;8.840;2024-02-21T04:40:53;5.65;;;2.70;;
84877;SDS011;75140;47.754;8.840;2024-02-21T04:43:19;7.93;;;2.92;;
84877;SDS011;75140;47.754;8.840;2024-02-21T04:45:45;8.52;;;3.00;;
84877;SDS011;75140;47.754;8.840;2024-02-21T04:48:10;7.00;;;2.05;;
84877;SDS011;75140;47.754;8.840;2024-02-21T04:50:36;9.73;;;3.33;;
84877;SDS011;75140;47.754;8.840;2024-02-21T04:53:01;4.95;;;2.30;;
84877;SDS011;75140;47.754;8.840;2024-02-21T04:55:27;5.13;;;2.45;;
84877;SDS011;75140;47.754;8.840;2024-02-21T04:57:52;4.33;;;2.07;;
84877;SDS011;75140;47.754;8.840;2024-02-21T05:00:18;4.83;;;2.70;;
84877;SDS011;75140;47.754;8.840;2024-02-21T05:02:43;6.18;;;2.33;;
84877;SDS011;75140;47.754;8.840;2024-02-21T05:05:08;8.00;;;3.33;;
84877;SDS011;75140;47.754;8.840;2024-02-21T05:07:34;12.83;;;3.53;;
84877;SDS011;75140;47.754;8.840;2024-02-21T05:10:00;7.18;;;2.85;;
84877;SDS011;75140;47.754;8.840;2024-02-21T05:12:25;5.75;;;3.42;;
84877;SDS011;75140;47.754;8.840;2024-02-21T05:14:51;7.60;;;3.25;;
84877;SDS011;75140;47.754;8.840;2024-02-21T05:17:16;5.60;;;2.53;;
84877;SDS011;75140;47.754;8.840;2024-02-21T05:19:41;8.43;;;3.07;;
84877;SDS011;75140;47.754;8.840;2024-02-21T05:22:07;6.03;;;2.85;;
84877;SDS011;75140;47.754;8.840;2024-02-21T05:24:32;4.28;;;2.58;;
84877;SDS011;75140;47.754;8.840;2024-02-21T05:26:57;4.30;;;2.67;;
84877;SDS011;75140;47.754;8.840;2024-02-21T05:29:23;9.57;;;3.00;;
84877;SDS011;75140;47.754;8.840;2024-02-21T05:34:19;4.97;;;3.83;;
84877;SDS011;75140;47.754;8.840;2024-02-21T05:36:45;7.18;;;3.38;;
84877;SDS011;75140;47.754;8.840;2024-02-21T05:39:11;6.95;;;3.22;;
84877;SDS011;75140;47.754;8.840;2024-02-21T05:41:36;8.63;;;3.13;;
84877;SDS011;75140;47.754;8.840;2024-02-21T05:44:02;5.70;;;3.20;;
84877;SDS011;75140;47.754;8.840;2024-02-21T05:46:27;6.47;;;3.95;;
84877;SDS011;75140;47.754;8.840;2024-02-21T05:48:53;11.20;;;3.58;;
84877;SDS011;75140;47.754;8.840;2024-02-21T05:51:18;5.32;;;3.17;;
84877;SDS011;75140;47.754;8.840;2024-02-21T05:53:44;5.83;;;3.13;;
84877;SDS011;75140;47.754;8.840;2024-02-21T05:56:12;7.20;;;3.70;;
84877;SDS011;75140;47.754;8.840;2024-02-21T05:58:39;6.78;;;3.95;;
84877;SDS011;75140;47.754;8.840;2024-02-21T06:01:04;7.43;;;3.08;;
84877;SDS011;75140;47.754;8.840;2024-02-21T06:03:32;4.38;;;2.95;;
84877;SDS011;75140;47.754;8.840;2024-02-21T06:05:57;6.38;;;2.90;;
84877;SDS011;75140;47.754;8.840;2024-02-21T06:08:23;5.07;;;2.65;;
84877;SDS011;75140;47.754;8.840;2024-02-21T06:10:48;8.33;;;3.63;;
84877;SDS011;75140;47.754;8.840;2024-02-21T06:13:17;5.05;;;3.22;;
84877;SDS011;75140;47.754;8.840;2024-02-21T06:15:42;8.87;;;3.33;;
84877;SDS011;75140;47.754;8.840;2024-02-21T06:18:07;8.73;;;3.90;;
84877;SDS011;75140;47.754;8.840;2024-02-21T06:20:33;10.30;;;3.58;;
84877;SDS011;75140;47.754;8.840;2024-02-21T06:23:01;5.60;;;3.45;;
84877;SDS011;75140;47.754;8.840;2024-02-21T06:25:26;6.77;;;3.83;;
84877;SDS011;75140;47.754;8.840;2024-02-21T06:27:51;9.10;;;3.63;;
84877;SDS011;75140;47.754;8.840;2024-02-21T06:30:17;8.20;;;3.57;;
84877;SDS011;75140;47.754;8.840;2024-02-21T06:32:42;5.80;;;2.63;;
84877;SDS011;75140;47.754;8.840;2024-02-21T06:35:07;5.73;;;3.20;;
84877;SDS011;75140;47.754;8.840;2024-02-21T06:37:33;8.23;;;3.33;;
84877;SDS011;75140;47.754;8.840;2024-02-21T06:39:58;11.00;;;3.13;;
84877;SDS011;75140;47.754;8.840;2024-02-21T06:42:24;7.88;;;3.42;;
84877;SDS011;75140;47.754;8.840;2024-02-21T06:44:50;6.55;;;3.72;;
84877;SDS011;75140;47.754;8.840;2024-02-21T06:47:15;6.57;;;3.17;;
84877;SDS011;75140;47.754;8.840;2024-02-21T06:49:40;8.10;;;3.40;;
84877;SDS011;75140;47.754;8.840;2024-02-21T06:52:06;6.65;;;3.42;;
84877;SDS011;75140;47.754;8.840;2024-02-21T06:54:32;6.27;;;3.40;;
84877;SDS011;75140;47.754;8.840;2024-02-21T06:56:57;9.68;;;3.50;;
84877;SDS011;75140;47.754;8.840;2024-02-21T06:59:23;7.17;;;3.70;;
84877;SDS011;75140;47.754;8.840;2024-02-21T07:01:48;11.77;;;4.20;;
84877;SDS011;75140;47.754;8.840;2024-02-21T07:04:14;12.02;;;5.18;;
84877;SDS011;75140;47.754;8.840;2024-02-21T07:06:40;12.20;;;3.78;;
84877;SDS011;75140;47.754;8.840;2024-02-21T07:09:06;9.13;;;4.00;;
84877;SDS011;75140;47.754;8.840;2024-02-21T07:11:31;8.75;;;3.15;;
84877;SDS011;75140;47.754;8.840;2024-02-21T07:13:57;3.87;;;3.30;;
84877;SDS011;75140;47.754;8.840;2024-02-21T07:16:22;6.50;;;3.80;;
84877;SDS011;75140;47.754;8.840;2024-02-21T07:18:47;9.30;;;3.50;;
84877;SDS011;75140;47.754;8.840;2024-02-21T07:21:13;6.70;;;3.80;;
84877;SDS011;75140;47.754;8.840;2024-02-21T07:23:42;11.00;;;4.20;;
84877;SDS011;75140;47.754;8.840;2024-02-21T07:26:08;5.68;;;3.63;;
84877;SDS011;75140;47.754;8.840;2024-02-21T07:28:33;10.93;;;4.45;;
84877;SDS011;75140;47.754;8.840;2024-02-21T07:30:59;12.37;;;4.10;;
84877;SDS011;75140;47.754;8.840;2024-02-21T07:33:24;6.88;;;3.90;;
84877;SDS011;75140;47.754;8.840;2024-02-21T07:35:50;14.63;;;4.72;;
84877;SDS011;75140;47.754;8.840;2024-02-21T07:38:15;8.88;;;4.50;;
84877;SDS011;75140;47.754;8.840;2024-02-21T07:40:44;8.45;;;3.97;;
84877;SDS011;75140;47.754;8.840;2024-02-21T07:43:10;5.82;;;3.95;;
84877;SDS011;75140;47.754;8.840;2024-02-21T07:45:35;9.50;;;4.50;;
84877;SDS011;75140;47.754;8.840;2024-02-21T07:48:01;8.25;;;4.45;;
84877;SDS011;75140;47.754;8.840;2024-02-21T07:50:27;10.95;;;4.68;;
84877;SDS011;75140;47.754;8.840;2024-02-21T07:52:52;11.50;;;5.53;;
84877;SDS011;75140;47.754;8.840;2024-02-21T07:55:18;10.38;;;5.13;;
84877;SDS011;75140;47.754;8.840;2024-02-21T07:57:43;13.18;;;4.57;;
84877;SDS011;75140;47.754;8.840;2024-02-21T08:00:08;9.97;;;4.27;;
84877;SDS011;75140;47.754;8.840;2024-02-21T08:02:38;10.02;;;4.30;;
84877;SDS011;75140;47.754;8.840;2024-02-21T08:05:04;8.60;;;4.60;;
84877;SDS011;75140;47.754;8.840;2024-02-21T08:07:29;6.03;;;4.25;;
84877;SDS011;75140;47.754;8.840;2024-02-21T08:09:55;12.05;;;4.72;;
84877;SDS011;75140;47.754;8.840;2024-02-21T08:12:21;9.20;;;4.78;;
84877;SDS011;75140;47.754;8.840;2024-02-21T08:14:46;10.10;;;4.50;;
84877;SDS011;75140;47.754;8.840;2024-02-21T08:17:12;7.30;;;3.77;;
84877;SDS011;75140;47.754;8.840;2024-02-21T08:19:37;8.48;;;5.15;;
84877;SDS011;75140;47.754;8.840;2024-02-21T08:22:02;8.03;;;4.30;;
84877;SDS011;75140;47.754;8.840;2024-02-21T08:24:28;8.40;;;4.97;;
84877;SDS011;75140;47.754;8.840;2024-02-21T08:26:53;13.30;;;5.22;;
84877;SDS011;75140;47.754;8.840;2024-02-21T08:29:19;9.97;;;5.40;;
84877;SDS011;75140;47.754;8.840;2024-02-21T08:31:44;10.15;;;4.55;;
84877;SDS011;75140;47.754;8.840;2024-02-21T08:34:10;6.77;;;4.80;;
84877;SDS011;75140;47.754;8.840;2024-02-21T08:36:35;11.40;;;4.18;;
84877;SDS011;75140;47.754;8.840;2024-02-21T08:39:02;7.90;;;4.22;;
84877;SDS011;75140;47.754;8.840;2024-02-21T08:41:31;8.82;;;5.72;;
84877;SDS011;75140;47.754;8.840;2024-02-21T08:43:57;8.60;;;4.35;;
84877;SDS011;75140;47.754;8.840;2024-02-21T08:46:25;7.05;;;4.38;;
84877;SDS011;75140;47.754;8.840;2024-02-21T08:48:51;8.52;;;4.10;;
84877;SDS011;75140;47.754;8.840;2024-02-21T08:51:17;5.53;;;3.28;;
84877;SDS011;75140;47.754;8.840;2024-02-21T08:53:45;6.50;;;4.32;;
84877;SDS011;75140;47.754;8.840;2024-02-21T08:56:11;6.30;;;4.03;;
84877;SDS011;75140;47.754;8.840;2024-02-21T08:58:38;10.43;;;4.03;;
84877;SDS011;75140;47.754;8.840;2024-02-21T09:01:04;6.93;;;3.88;;
84877;SDS011;75140;47.754;8.840;2024-02-21T09:03:31;5.88;;;3.67;;
84877;SDS011;75140;47.754;8.840;2024-02-21T09:05:57;5.28;;;3.40;;
84877;SDS011;75140;47.754;8.840;2024-02-21T09:08:23;5.05;;;3.85;;
84877;SDS011;75140;47.754;8.840;2024-02-21T09:10:49;8.57;;;4.53;;
84877;SDS011;75140;47.754;8.840;2024-02-21T09:13:14;5.70;;;3.15;;
84877;SDS011;75140;47.754;8.840;2024-02-21T09:15:40;7.70;;;4.50;;
84877;SDS011;75140;47.754;8.840;2024-02-21T09:18:05;8.38;;;4.18;;
84877;SDS011;75140;47.754;8.840;2024-02-21T09:20:31;6.68;;;3.53;;
84877;SDS011;75140;47.754;8.840;2024-02-21T09:22:56;5.47;;;3.50;;
84877;SDS011;75140;47.754;8.840;2024-02-21T09:25:22;4.73;;;3.00;;
84877;SDS011;75140;47.754;8.840;2024-02-21T09:27:47;7.03;;;3.50;;
84877;SDS011;75140;47.754;8.840;2024-02-21T09:30:13;4.30;;;2.50;;
84877;SDS011;75140;47.754;8.840;2024-02-21T09:32:38;4.88;;;2.67;;
84877;SDS011;75140;47.754;8.840;2024-02-21T09:35:04;5.45;;;2.78;;
84877;SDS011;75140;47.754;8.840;2024-02-21T09:37:32;4.53;;;2.22;;
84877;SDS011;75140;47.754;8.840;2024-02-21T09:39:58;5.53;;;2.55;;
84877;SDS011;75140;47.754;8.840;2024-02-21T09:42:25;5.82;;;2.80;;
84877;SDS011;75140;47.754;8.840;2024-02-21T09:45:17;4.68;;;2.95;;
84877;SDS011;75140;47.754;8.840;2024-02-21T09:50:27;3.58;;;2.72;;
84877;SDS011;75140;47.754;8.840;2024-02-21T09:52:56;3.63;;;2.38;;
84877;SDS011;75140;47.754;8.840;2024-02-21T09:55:23;5.07;;;2.40;;
84877;SDS011;75140;47.754;8.840;2024-02-21T10:00:23;8.63;;;2.17;;
84877;SDS011;75140;47.754;8.840;2024-02-21T10:02:48;4.93;;;2.30;;
84877;SDS011;75140;47.754;8.840;2024-02-21T10:05:17;3.65;;;2.40;;
84877;SDS011;75140;47.754;8.840;2024-02-21T10:07:43;2.78;;;1.58;;
84877;SDS011;75140;47.754;8.840;2024-02-21T10:10:09;2.75;;;1.60;;
84877;SDS011;75140;47.754;8.840;2024-02-21T10:12:34;2.85;;;1.80;;
84877;SDS011;75140;47.754;8.840;2024-02-21T10:15:03;2.27;;;1.80;;
84877;SDS011;75140;47.754;8.840;2024-02-21T10:17:30;3.85;;;1.60;;
84877;SDS011;75140;47.754;8.840;2024-02-21T10:20:06;4.95;;;1.98;;
84877;SDS011;75140;47.754;8.840;2024-02-21T10:22:33;4.85;;;1.85;;
84877;SDS011;75140;47.754;8.840;2024-02-21T10:25:07;2.00;;;1.80;;
84877;SDS011;75140;47.754;8.840;2024-02-21T10:27:36;3.33;;;2.05;;
84877;SDS011;75140;47.754;8.840;2024-02-21T10:30:03;2.55;;;1.85;;
84877;SDS011;75140;47.754;8.840;2024-02-21T10:32:49;3.95;;;2.13;;
84877;SDS011;75140;47.754;8.840;2024-02-21T10:35:31;4.32;;;1.90;;
84877;SDS011;75140;47.754;8.840;2024-02-21T10:37:58;2.92;;;1.63;;
84877;SDS011;75140;47.754;8.840;2024-02-21T10:40:32;2.95;;;1.92;;
84877;SDS011;75140;47.754;8.840;2024-02-21T10:42:59;5.07;;;2.10;;
84877;SDS011;75140;47.754;8.840;2024-02-21T10:45:34;3.40;;;1.92;;
84877;SDS011;75140;47.754;8.840;2024-02-21T10:48:08;3.55;;;2.25;;
84877;SDS011;75140;47.754;8.840;2024-02-21T10:56:10;3.30;;;2.10;;
84877;SDS011;75140;47.754;8.840;2024-02-21T10:58:45;2.25;;;1.77;;
84877;SDS011;75140;47.754;8.840;2024-02-21T11:01:11;4.25;;;2.00;;
84877;SDS011;75140;47.754;8.840;2024-02-21T11:03:40;2.70;;;2.20;;
84877;SDS011;75140;47.754;8.840;2024-02-21T11:06:07;2.85;;;1.95;;
84877;SDS011;75140;47.754;8.840;2024-02-21T11:08:35;3.13;;;1.52;;
84877;SDS011;75140;47.754;8.840;2024-02-21T11:11:00;3.00;;;1.40;;
84877;SDS011;75140;47.754;8.840;2024-02-21T11:13:34;1.93;;;1.60;;
84877;SDS011;75140;47.754;8.840;2024-02-21T11:16:10;3.50;;;1.55;;
84877;SDS011;75140;47.754;8.840;2024-02-21T11:18:39;8.07;;;1.90;;
84877;SDS011;75140;47.754;8.840;2024-02-21T11:21:05;3.35;;;1.50;;
84877;SDS011;75140;47.754;8.840;2024-02-21T11:23:31;2.60;;;1.58;;
84877;SDS011;75140;47.754;8.840;2024-02-21T11:28:31;2.53;;;1.63;;
84877;SDS011;75140;47.754;8.840;2024-02-21T11:33:38;6.20;;;2.00;;
84877;SDS011;75140;47.754;8.840;2024-02-21T11:36:10;2.33;;;1.75;;
84877;SDS011;75140;47.754;8.840;2024-02-21T11:38:36;2.33;;;1.60;;
84877;SDS011;75140;47.754;8.840;2024-02-21T11:41:02;3.20;;;1.70;;
84877;SDS011;75140;47.754;8.840;2024-02-21T11:43:27;2.38;;;1.85;;
84877;SDS011;75140;47.754;8.840;2024-02-21T11:46:02;4.20;;;1.85;;
84877;SDS011;75140;47.754;8.840;2024-02-21T11:48:28;5.50;;;2.03;;
84877;SDS011;75140;47.754;8.840;2024-02-21T11:50:54;3.42;;;1.90;;
84877;SDS011;75140;47.754;8.840;2024-02-21T11:53:21;5.47;;;2.03;;
84877;SDS011;75140;47.754;8.840;2024-02-21T11:55:46;3.00;;;2.10;;
84877;SDS011;75140;47.754;8.840;2024-02-21T11:58:11;3.35;;;1.60;;
84877;SDS011;75140;47.754;8.840;2024-02-21T12:00:37;2.43;;;1.10;;
84877;SDS011;75140;47.754;8.840;2024-02-21T12:03:03;4.13;;;1.37;;
84877;SDS011;75140;47.754;8.840;2024-02-21T12:05:30;3.30;;;2.28;;
84877;SDS011;75140;47.754;8.840;2024-02-21T12:07:56;2.58;;;2.25;;
84877;SDS011;75140;47.754;8.840;2024-02-21T12:10:23;4.05;;;1.58;;
84877;SDS011;75140;47.754;8.840;2024-02-21T12:12:48;2.90;;;1.77;;
84877;SDS011;75140;47.754;8.840;2024-02-21T12:15:17;2.72;;;1.58;;
84877;SDS011;75140;47.754;8.840;2024-02-21T12:17:43;9.95;;;2.00;;
84877;SDS011;75140;47.754;8.840;2024-02-21T12:20:10;3.55;;;1.67;;
84877;SDS011;75140;47.754;8.840;2024-02-21T12:22:36;4.93;;;1.63;;
84877;SDS011;75140;47.754;8.840;2024-02-21T12:25:19;2.08;;;1.55;;
84877;SDS011;75140;47.754;8.840;2024-02-21T12:27:47;5.38;;;1.30;;
84877;SDS011;75140;47.754;8.840;2024-02-21T12:30:14;2.25;;;2.00;;
84877;SDS011;75140;47.754;8.840;2024-02-21T12:32:42;4.38;;;1.65;;
84877;SDS011;75140;47.754;8.840;2024-02-21T12:35:07;2.43;;;1.53;;
84877;SDS011;75140;47.754;8.840;2024-02-21T12:37:33;4.45;;;1.90;;
84877;SDS011;75140;47.754;8.840;2024-02-21T12:39:58;2.33;;;1.33;;
84877;SDS011;75140;47.754;8.840;2024-02-21T12:42:24;2.65;;;1.35;;
84877;SDS011;75140;47.754;8.840;2024-02-21T12:44:51;3.22;;;1.60;;
84877;SDS011;75140;47.754;8.840;2024-02-21T12:47:17;1.67;;;1.40;;
84877;SDS011;75140;47.754;8.840;2024-02-21T12:49:44;2.83;;;1.85;;
84877;SDS011;75140;47.754;8.840;2024-02-21T12:52:10;4.03;;;2.10;;
84877;SDS011;75140;47.754;8.840;2024-02-21T12:54:35;2.40;;;1.42;;
84877;SDS011;75140;47.754;8.840;2024-02-21T12:57:01;2.27;;;1.77;;
84877;SDS011;75140;47.754;8.840;2024-02-21T12:59:28;2.55;;;1.48;;
84877;SDS011;75140;47.754;8.840;2024-02-21T13:01:54;2.55;;;1.88;;
84877;SDS011;75140;47.754;8.840;2024-02-21T13:04:19;4.35;;;1.52;;
84877;SDS011;75140;47.754;8.840;2024-02-21T13:06:46;1.85;;;1.10;;
84877;SDS011;75140;47.754;8.840;2024-02-21T13:09:12;2.55;;;1.80;;
84877;SDS011;75140;47.754;8.840;2024-02-21T13:11:38;5.47;;;1.65;;
84877;SDS011;75140;47.754;8.840;2024-02-21T13:14:05;2.88;;;1.65;;
84877;SDS011;75140;47.754;8.840;2024-02-21T13:16:31;2.03;;;1.70;;
84877;SDS011;75140;47.754;8.840;2024-02-21T13:18:56;3.85;;;1.45;;
84877;SDS011;75140;47.754;8.840;2024-02-21T13:21:23;3.60;;;1.95;;
84877;SDS011;75140;47.754;8.840;2024-02-21T13:23:48;2.57;;;1.97;;
84877;SDS011;75140;47.754;8.840;2024-02-21T13:26:13;3.37;;;1.70;;
84877;SDS011;75140;47.754;8.840;2024-02-21T13:28:39;4.22;;;1.80;;
84877;SDS011;75140;47.754;8.840;2024-02-21T13:31:04;2.22;;;1.80;;
84877;SDS011;75140;47.754;8.840;2024-02-21T13:33:30;2.75;;;2.15;;
84877;SDS011;75140;47.754;8.840;2024-02-21T13:35:55;6.47;;;1.98;;
84877;SDS011;75140;47.754;8.840;2024-02-21T13:38:21;2.38;;;1.35;;
84877;SDS011;75140;47.754;8.840;2024-02-21T13:40:46;4.38;;;1.60;;
84877;SDS011;75140;47.754;8.840;2024-02-21T13:43:11;2.13;;;1.53;;
84877;SDS011;75140;47.754;8.840;2024-02-21T13:45:38;5.50;;;2.75;;
84877;SDS011;75140;47.754;8.840;2024-02-21T13:48:04;6.72;;;2.00;;
84877;SDS011;75140;47.754;8.840;2024-02-21T13:50:31;2.50;;;1.70;;
84877;SDS011;75140;47.754;8.840;2024-02-21T13:52:57;2.28;;;1.48;;
84877;SDS011;75140;47.754;8.840;2024-02-21T13:55:23;4.38;;;1.80;;
84877;SDS011;75140;47.754;8.840;2024-02-21T13:57:51;4.38;;;1.58;;
84877;SDS011;75140;47.754;8.840;2024-02-21T14:00:17;2.67;;;1.73;;
84877;SDS011;75140;47.754;8.840;2024-02-21T14:02:43;3.42;;;1.50;;
84877;SDS011;75140;47.754;8.840;2024-02-21T14:05:09;3.88;;;1.40;;
84877;SDS011;75140;47.754;8.840;2024-02-21T14:07:35;3.05;;;1.70;;
84877;SDS011;75140;47.754;8.840;2024-02-21T14:10:00;2.23;;;1.27;;
84877;SDS011;75140;47.754;8.840;2024-02-21T14:12:25;2.40;;;1.50;;
84877;SDS011;75140;47.754;8.840;2024-02-21T14:14:51;2.10;;;1.30;;
84877;SDS011;75140;47.754;8.840;2024-02-21T14:17:17;1.77;;;1.40;;
84877;SDS011;75140;47.754;8.840;2024-02-21T14:19:42;1.90;;;1.48;;
84877;SDS011;75140;47.754;8.840;2024-02-21T14:22:08;2.20;;;1.90;;
84877;SDS011;75140;47.754;8.840;2024-02-21T14:24:33;2.97;;;1.38;;
84877;SDS011;75140;47.754;8.840;2024-02-21T14:26:59;1.83;;;1.60;;
84877;SDS011;75140;47.754;8.840;2024-02-21T14:29:25;2.28;;;1.20;;
84877;SDS011;75140;47.754;8.840;2024-02-21T14:31:50;2.63;;;1.30;;
84877;SDS011;75140;47.754;8.840;2024-02-21T14:34:15;1.67;;;1.33;;
84877;SDS011;75140;47.754;8.840;2024-02-21T14:36:41;4.05;;;1.52;;
84877;SDS011;75140;47.754;8.840;2024-02-21T14:39:06;1.85;;;1.30;;
84877;SDS011;75140;47.754;8.840;2024-02-21T14:41:32;1.90;;;1.42;;
84877;SDS011;75140;47.754;8.840;2024-02-21T14:44:00;2.20;;;1.30;;
84877;SDS011;75140;47.754;8.840;2024-02-21T14:46:26;5.70;;;1.67;;
84877;SDS011;75140;47.754;8.840;2024-02-21T14:48:53;12.25;;;1.70;;
84877;SDS011;75140;47.754;8.840;2024-02-21T14:51:19;1.92;;;1.40;;
84877;SDS011;75140;47.754;8.840;2024-02-21T14:53:44;2.70;;;1.87;;
84877;SDS011;75140;47.754;8.840;2024-02-21T14:56:17;5.07;;;1.95;;
84877;SDS011;75140;47.754;8.840;2024-02-21T14:58:43;3.30;;;1.60;;
84877;SDS011;75140;47.754;8.840;2024-02-21T15:01:08;3.22;;;1.40;;
84877;SDS011;75140;47.754;8.840;2024-02-21T15:03:34;2.42;;;1.50;;